4XCDE LLHA-LLHA
Flight info
| Callsign | 4XCDE |
|---|---|
| Flight time | 0h 4m |
| Altitude | 1200 |
| Route | / |
| Aircraft | C172/L-S/L |
Departure
| Time | 2026-04-25 15:43 |
|---|---|
| Airport | Uri Michaeli Haifa International Airport (LLHA) |
Arrival
| Time | 2026-04-25 15:47 |
|---|---|
| Airport | Uri Michaeli Haifa International Airport (LLHA) |
| Time | Latitude | Longitude | Altitude | Speed | Heading |
|---|---|---|---|---|---|
| 2026-04-25 15:13 | 32.81242 | 35.04160 | 20 ft | 0 kts | 70° |
| 2026-04-25 15:13 | 32.81241 | 35.04160 | 20 ft | 0 kts | 70° |
| 2026-04-25 15:16 | 32.81241 | 35.04159 | 20 ft | 0 kts | 70° |
| 2026-04-25 15:22 | 32.81241 | 35.04158 | 20 ft | 0 kts | 70° |
| 2026-04-25 15:29 | 32.81241 | 35.04157 | 20 ft | 0 kts | 70° |
| 2026-04-25 15:33 | 32.81233 | 35.04182 | 21 ft | 6 kts | 169° |
| 2026-04-25 15:33 | 32.81185 | 35.04196 | 21 ft | 7 kts | 160° |
| 2026-04-25 15:34 | 32.81155 | 35.04233 | 21 ft | 0 kts | 75° |
| 2026-04-25 15:38 | 32.81156 | 35.04235 | 21 ft | 0 kts | 60° |
| 2026-04-25 15:41 | 32.81163 | 35.04253 | 22 ft | 11 kts | 68° |
| 2026-04-25 15:41 | 32.81109 | 35.04334 | 21 ft | 25 kts | 158° |
| 2026-04-25 15:41 | 32.80843 | 35.04444 | 22 ft | 47 kts | 162° |
| 2026-04-25 15:41 | 32.80588 | 35.04546 | 19 ft | 16 kts | 150° |
| 2026-04-25 15:42 | 32.80610 | 35.04561 | 20 ft | 7 kts | 328° |
| 2026-04-25 15:42 | 32.80616 | 35.04557 | 20 ft | 3 kts | 332° |
| 2026-04-25 15:42 | 32.80797 | 35.04472 | 21 ft | 52 kts | 339° |
| 2026-04-25 15:42 | 32.81238 | 35.04284 | 124 ft | 72 kts | 331° |
| 2026-04-25 15:43 | 32.81708 | 35.04069 | 401 ft | 69 kts | 336° |
| 2026-04-25 15:43 | 32.82163 | 35.03892 | 693 ft | 66 kts | 1° |
| 2026-04-25 15:43 | 32.82511 | 35.04279 | 863 ft | 79 kts | 46° |
| 2026-04-25 15:43 | 32.82755 | 35.04908 | 912 ft | 98 kts | 99° |
| 2026-04-25 15:44 | 32.82277 | 35.05508 | 981 ft | 113 kts | 151° |
| 2026-04-25 15:44 | 32.81556 | 35.05941 | 1061 ft | 117 kts | 154° |
| 2026-04-25 15:44 | 32.80831 | 35.06326 | 1014 ft | 111 kts | 154° |
| 2026-04-25 15:44 | 32.80189 | 35.06705 | 942 ft | 94 kts | 155° |
| 2026-04-25 15:45 | 32.79645 | 35.07019 | 830 ft | 85 kts | 155° |
| 2026-04-25 15:45 | 32.79039 | 35.07355 | 817 ft | 103 kts | 154° |
| 2026-04-25 15:45 | 32.78461 | 35.07254 | 866 ft | 92 kts | 238° |
| 2026-04-25 15:45 | 32.78348 | 35.07032 | 808 ft | 94 kts | 244° |
| 2026-04-25 15:46 | 32.78015 | 35.05991 | 532 ft | 62 kts | 300° |
| 2026-04-25 15:46 | 32.78287 | 35.05565 | 500 ft | 66 kts | 320° |
| 2026-04-25 15:46 | 32.78724 | 35.05349 | 463 ft | 70 kts | 338° |
| 2026-04-25 15:46 | 32.79191 | 35.05149 | 447 ft | 75 kts | 333° |
| 2026-04-25 15:47 | 32.79685 | 35.04945 | 378 ft | 72 kts | 341° |
| 2026-04-25 15:47 | 32.80134 | 35.04761 | 199 ft | 65 kts | 336° |
| 2026-04-25 15:47 | 32.80534 | 35.04589 | 62 ft | 58 kts | 334° |
| 2026-04-25 15:47 | 32.80888 | 35.04433 | 22 ft | 48 kts | 334° |
| 2026-04-25 15:48 | 32.81268 | 35.04274 | 88 ft | 65 kts | 332° |
| 2026-04-25 15:48 | 32.81678 | 35.04055 | 308 ft | 61 kts | 330° |
| 2026-04-25 15:48 | 32.82038 | 35.03845 | 566 ft | 58 kts | 328° |
| 2026-04-25 15:48 | 32.82286 | 35.03823 | 692 ft | 64 kts | 26° |
| 2026-04-25 15:49 | 32.82653 | 35.04323 | 701 ft | 90 kts | 52° |
| 2026-04-25 15:49 | 32.82617 | 35.05273 | 893 ft | 100 kts | 127° |
| 2026-04-25 15:49 | 32.82049 | 35.05830 | 998 ft | 107 kts | 153° |
| 2026-04-25 15:49 | 32.81394 | 35.06223 | 1045 ft | 102 kts | 153° |
| 2026-04-25 15:50 | 32.80800 | 35.06596 | 1116 ft | 92 kts | 154° |
| 2026-04-25 15:50 | 32.80427 | 35.06824 | 1156 ft | 86 kts | 153° |
| 2026-04-25 15:50 | 32.79925 | 35.07160 | 1143 ft | 88 kts | 149° |
| 2026-04-25 15:50 | 32.79374 | 35.07548 | 1016 ft | 98 kts | 148° |
| 2026-04-25 15:51 | 32.78774 | 35.07628 | 917 ft | 86 kts | 213° |
| 2026-04-25 15:51 | 32.78482 | 35.07328 | 802 ft | 78 kts | 235° |
| 2026-04-25 15:51 | 32.78121 | 35.06684 | 640 ft | 65 kts | 246° |
| 2026-04-25 15:51 | 32.77946 | 35.06267 | 579 ft | 56 kts | 253° |
| 2026-04-25 15:52 | 32.77941 | 35.05851 | 533 ft | 51 kts | 308° |
| 2026-04-25 15:52 | 32.78224 | 35.05559 | 535 ft | 57 kts | 334° |
| 2026-04-25 15:52 | 32.78628 | 35.05405 | 461 ft | 64 kts | 337° |
| 2026-04-25 15:52 | 32.79037 | 35.05227 | 430 ft | 62 kts | 334° |
| 2026-04-25 15:53 | 32.79449 | 35.05058 | 307 ft | 65 kts | 334° |
| 2026-04-25 15:53 | 32.79867 | 35.04875 | 199 ft | 62 kts | 336° |
| 2026-04-25 15:53 | 32.80269 | 35.04709 | 110 ft | 61 kts | 332° |
| 2026-04-25 15:53 | 32.80636 | 35.04547 | 35 ft | 53 kts | 332° |
| 2026-04-25 15:54 | 32.80938 | 35.04402 | 23 ft | 40 kts | 338° |
| 2026-04-25 15:54 | 32.81179 | 35.04280 | 22 ft | 24 kts | 276° |
| 2026-04-25 15:54 | 32.81197 | 35.04190 | 21 ft | 8 kts | 338° |
| 2026-04-25 15:54 | 32.81231 | 35.04139 | 19 ft | 10 kts | 295° |
| 2026-04-25 15:55 | 32.81261 | 35.04131 | 19 ft | 3 kts | 36° |
| 2026-04-25 15:55 | 32.81269 | 35.04158 | 20 ft | 0 kts | 85° |